createdAt,value
2017-10-16T00:00:06.746Z,10.80
2017-10-16T00:02:33.512Z,10.23
2017-10-16T00:05:01.296Z,13.30
2017-10-16T00:07:28.363Z,9.50
2017-10-16T00:09:55.131Z,10.67
2017-10-16T00:12:21.939Z,10.23
2017-10-16T00:14:48.707Z,10.90
2017-10-16T00:17:15.827Z,11.70
2017-10-16T00:19:43.439Z,11.20
2017-10-16T00:22:10.218Z,11.30
2017-10-16T00:24:36.991Z,10.57
2017-10-16T00:27:04.491Z,11.23
2017-10-16T00:29:31.306Z,12.40
2017-10-16T00:31:58.280Z,11.53
2017-10-16T00:34:25.183Z,11.13
2017-10-16T00:36:51.987Z,11.10
2017-10-16T00:39:18.810Z,12.20
2017-10-16T00:41:45.634Z,12.07
2017-10-16T00:44:12.419Z,12.40
2017-10-16T00:46:39.217Z,12.50
2017-10-16T00:49:07.064Z,11.70
2017-10-16T00:51:33.839Z,11.20
2017-10-16T00:54:00.955Z,11.83
2017-10-16T00:56:27.758Z,12.83
2017-10-16T00:58:55.257Z,11.50
2017-10-16T01:01:22.038Z,12.23
2017-10-16T01:03:48.886Z,12.57
2017-10-16T01:06:16.358Z,13.33
2017-10-16T01:08:43.130Z,12.63
2017-10-16T01:11:09.945Z,12.67
2017-10-16T01:13:36.764Z,15.20
2017-10-16T01:16:04.708Z,12.60
2017-10-16T01:18:32.604Z,12.47
2017-10-16T01:21:00.400Z,12.83
2017-10-16T01:23:27.209Z,15.00
2017-10-16T01:25:54.049Z,13.80
2017-10-16T01:28:21.510Z,14.67
2017-10-16T01:30:48.322Z,14.40
2017-10-16T01:33:15.148Z,13.80
2017-10-16T01:35:41.959Z,13.70
2017-10-16T01:38:08.823Z,13.10
2017-10-16T01:40:35.666Z,13.93
2017-10-16T01:43:03.228Z,14.03
2017-10-16T01:45:30.020Z,14.93
2017-10-16T01:47:56.875Z,14.00
2017-10-16T01:50:23.692Z,14.23
2017-10-16T01:52:50.494Z,14.90
2017-10-16T01:55:17.322Z,14.10
2017-10-16T01:57:44.906Z,14.37
2017-10-16T02:00:12.183Z,14.50
2017-10-16T02:02:39.048Z,14.90
2017-10-16T02:05:06.204Z,15.10
2017-10-16T02:07:32.986Z,14.73
2017-10-16T02:09:59.788Z,14.30
2017-10-16T02:12:26.583Z,15.37
2017-10-16T02:14:53.370Z,15.03
2017-10-16T02:17:20.172Z,15.47
2017-10-16T02:19:46.960Z,15.43
2017-10-16T02:22:13.734Z,14.63
2017-10-16T02:24:40.576Z,16.50
2017-10-16T02:27:07.345Z,15.80
2017-10-16T02:29:34.095Z,16.03
2017-10-16T02:32:00.929Z,16.83
2017-10-16T02:34:27.696Z,17.17
2017-10-16T02:36:54.489Z,17.27
2017-10-16T02:39:21.894Z,17.53
2017-10-16T02:41:48.658Z,16.93
2017-10-16T02:44:15.414Z,17.47
2017-10-16T02:46:42.698Z,17.13
2017-10-16T02:49:09.495Z,17.30
2017-10-16T02:51:36.295Z,18.47
2017-10-16T02:54:03.692Z,18.97
2017-10-16T02:56:30.475Z,17.30
2017-10-16T02:58:57.238Z,17.67
2017-10-16T03:01:24.059Z,18.97
2017-10-16T03:03:51.454Z,17.80
2017-10-16T03:06:18.255Z,18.30
2017-10-16T03:08:45.113Z,19.40
2017-10-16T03:11:12.169Z,19.20
2017-10-16T03:13:38.998Z,20.03
2017-10-16T03:16:05.837Z,18.83
2017-10-16T03:18:32.627Z,19.03
2017-10-16T03:21:00.114Z,19.40
2017-10-16T03:23:26.927Z,19.33
2017-10-16T03:25:54.440Z,19.90
2017-10-16T03:28:21.230Z,19.70
2017-10-16T03:30:48.083Z,18.50
2017-10-16T03:33:15.835Z,20.00
2017-10-16T03:35:42.683Z,20.40
2017-10-16T03:38:10.189Z,21.00
2017-10-16T03:40:36.995Z,19.43
2017-10-16T03:43:03.777Z,19.33
2017-10-16T03:45:30.619Z,20.50
2017-10-16T03:47:57.404Z,23.13
2017-10-16T03:50:24.239Z,21.20
2017-10-16T03:52:51.080Z,23.83
2017-10-16T03:55:17.937Z,23.10
2017-10-16T03:57:44.770Z,21.70
2017-10-16T04:00:11.610Z,22.30
2017-10-16T04:02:38.452Z,22.40
2017-10-16T04:05:05.812Z,24.27
2017-10-16T04:07:32.650Z,22.17
2017-10-16T04:10:00.452Z,23.47
2017-10-16T04:12:27.239Z,22.50
2017-10-16T04:14:54.061Z,24.43
2017-10-16T04:17:20.883Z,21.90
2017-10-16T04:19:47.681Z,23.10
2017-10-16T04:22:14.566Z,21.97
2017-10-16T04:24:41.365Z,22.17
2017-10-16T04:27:08.188Z,21.90
2017-10-16T04:29:35.026Z,23.93
2017-10-16T04:32:01.794Z,23.53
2017-10-16T04:34:28.594Z,24.00
2017-10-16T04:36:55.436Z,24.87
2017-10-16T04:39:22.218Z,24.67
2017-10-16T04:41:49.428Z,24.23
2017-10-16T04:44:17.034Z,24.37
2017-10-16T04:46:44.522Z,23.50
2017-10-16T04:49:11.424Z,24.27
2017-10-16T04:51:38.835Z,25.30
2017-10-16T04:54:05.632Z,24.57
2017-10-16T04:56:32.500Z,24.30
2017-10-16T04:59:00.075Z,26.10
2017-10-16T05:01:27.065Z,23.17
2017-10-16T05:03:54.230Z,26.17
2017-10-16T05:06:21.100Z,25.67
2017-10-16T05:08:48.982Z,25.27
2017-10-16T05:11:16.197Z,26.87
2017-10-16T05:13:43.973Z,25.40
2017-10-16T05:16:10.760Z,26.00
2017-10-16T05:18:37.662Z,24.80
2017-10-16T05:21:04.539Z,25.87
2017-10-16T05:23:31.310Z,28.40
2017-10-16T05:25:58.102Z,26.43
2017-10-16T05:28:24.919Z,25.30
2017-10-16T05:30:51.696Z,28.33
2017-10-16T05:33:18.477Z,26.70
2017-10-16T05:35:45.280Z,25.63
2017-10-16T05:38:12.143Z,26.43
2017-10-16T05:40:39.576Z,27.47
2017-10-16T05:43:06.395Z,27.17
2017-10-16T05:45:44.014Z,27.80
2017-10-16T05:48:10.840Z,26.47
2017-10-16T05:50:38.431Z,25.77
2017-10-16T05:53:05.207Z,25.33
2017-10-16T05:55:32.179Z,27.60
2017-10-16T05:57:58.971Z,24.40
2017-10-16T06:00:25.765Z,27.07
2017-10-16T06:02:52.576Z,28.10
2017-10-16T06:05:19.656Z,26.70
2017-10-16T06:07:46.504Z,25.67
2017-10-16T06:10:13.370Z,28.77
2017-10-16T06:12:40.182Z,27.17
2017-10-16T06:15:06.991Z,27.03
2017-10-16T06:17:33.827Z,27.17
2017-10-16T06:20:01.240Z,24.40
2017-10-16T06:22:28.056Z,27.37
2017-10-16T06:24:54.866Z,25.43
2017-10-16T06:27:21.646Z,26.70
2017-10-16T06:29:48.502Z,25.30
2017-10-16T06:32:15.405Z,26.37
2017-10-16T06:34:42.583Z,26.13
2017-10-16T06:37:10.142Z,28.37
2017-10-16T06:39:36.984Z,28.53
2017-10-16T06:42:03.842Z,26.40
2017-10-16T06:44:30.935Z,27.83
2017-10-16T06:46:57.776Z,28.73
2017-10-16T06:49:25.082Z,30.07
2017-10-16T06:51:51.914Z,28.20
2017-10-16T06:54:18.746Z,27.67
2017-10-16T06:56:45.527Z,26.80
2017-10-16T06:59:12.850Z,29.80
2017-10-16T07:01:39.709Z,28.97
2017-10-16T07:04:06.574Z,27.23
2017-10-16T07:06:33.363Z,28.13
2017-10-16T07:09:00.167Z,27.10
2017-10-16T07:11:26.977Z,28.20
2017-10-16T07:13:54.087Z,27.23
2017-10-16T07:16:20.971Z,28.40
2017-10-16T07:18:47.814Z,28.17
2017-10-16T07:21:14.655Z,28.10
2017-10-16T07:23:41.673Z,28.00
2017-10-16T07:26:08.490Z,28.43
2017-10-16T07:28:35.579Z,28.90
2017-10-16T07:31:02.976Z,27.10
2017-10-16T07:33:30.206Z,28.03
2017-10-16T07:35:57.554Z,28.13
2017-10-16T07:38:24.403Z,28.63
2017-10-16T07:40:51.238Z,28.33
2017-10-16T07:43:18.031Z,27.13
2017-10-16T07:45:45.438Z,29.27
2017-10-16T07:48:12.232Z,29.47
2017-10-16T07:50:39.009Z,29.60
2017-10-16T07:55:38.913Z,28.87
2017-10-16T07:58:05.742Z,30.83
2017-10-16T08:00:32.571Z,30.10
2017-10-16T08:02:59.435Z,31.40
2017-10-16T08:05:26.286Z,30.30
2017-10-16T08:07:53.089Z,29.20
2017-10-16T08:10:20.587Z,27.27
2017-10-16T08:12:47.453Z,27.83
2017-10-16T08:15:14.713Z,31.80
2017-10-16T08:17:41.539Z,30.50
2017-10-16T08:20:08.340Z,28.80
2017-10-16T08:22:35.292Z,30.67
2017-10-16T08:25:02.150Z,31.10
2017-10-16T08:27:28.998Z,31.97
2017-10-16T08:29:55.871Z,31.30
2017-10-16T08:32:22.682Z,27.50
2017-10-16T08:34:49.567Z,30.77
2017-10-16T08:37:16.523Z,32.60
2017-10-16T08:39:43.330Z,32.00
2017-10-16T08:42:10.173Z,32.13
2017-10-16T08:44:38.162Z,29.10
2017-10-16T08:47:05.677Z,29.20
2017-10-16T08:49:32.872Z,34.10
2017-10-16T08:52:00.196Z,30.10
2017-10-16T08:54:27.027Z,32.10
2017-10-16T08:56:54.567Z,29.57
2017-10-16T08:59:21.397Z,29.90
2017-10-16T09:01:49.124Z,29.00
2017-10-16T09:04:15.953Z,28.37
2017-10-16T09:06:42.799Z,29.67
2017-10-16T09:09:09.617Z,30.13
2017-10-16T09:11:36.472Z,30.57
2017-10-16T09:14:03.279Z,32.00
2017-10-16T09:16:30.160Z,31.70
2017-10-16T09:18:57.042Z,32.03
2017-10-16T09:21:23.841Z,31.00
2017-10-16T09:23:50.813Z,29.60
2017-10-16T09:26:17.776Z,24.90
2017-10-16T09:28:44.608Z,27.07
2017-10-16T09:31:11.458Z,29.87
2017-10-16T09:33:38.304Z,30.20
2017-10-16T09:36:05.144Z,28.80
2017-10-16T09:38:32.001Z,32.10
2017-10-16T09:40:59.195Z,31.97
2017-10-16T09:43:26.044Z,31.80
2017-10-16T09:45:53.111Z,32.37
2017-10-16T09:48:19.974Z,32.57
2017-10-16T09:50:46.827Z,32.67
2017-10-16T09:53:13.652Z,34.50
2017-10-16T09:55:40.487Z,30.90
2017-10-16T09:58:07.278Z,30.43
2017-10-16T10:00:34.243Z,29.40
2017-10-16T10:03:01.095Z,33.00
2017-10-16T10:05:27.942Z,33.10
2017-10-16T10:07:54.748Z,28.97
2017-10-16T10:10:21.674Z,32.33
2017-10-16T10:12:48.515Z,31.30
2017-10-16T10:15:15.305Z,29.07
2017-10-16T10:17:42.196Z,31.57
2017-10-16T10:20:09.402Z,32.37
2017-10-16T10:22:36.209Z,31.57
2017-10-16T10:25:03.050Z,29.90
2017-10-16T10:27:30.282Z,32.10
2017-10-16T10:29:57.080Z,29.77
2017-10-16T10:32:23.899Z,28.87
2017-10-16T10:34:50.704Z,30.10
2017-10-16T10:37:17.519Z,31.50
2017-10-16T10:39:45.149Z,29.87
2017-10-16T10:42:11.949Z,31.90
2017-10-16T10:44:39.226Z,30.27
2017-10-16T10:47:06.045Z,31.70
2017-10-16T10:49:32.878Z,28.57
2017-10-16T10:51:59.713Z,30.90
2017-10-16T10:54:27.291Z,31.50
2017-10-16T10:56:55.283Z,30.77
2017-10-16T10:59:22.089Z,32.10
2017-10-16T11:01:49.668Z,31.60
2017-10-16T11:04:16.476Z,31.00
2017-10-16T11:06:43.265Z,31.17
2017-10-16T11:09:10.103Z,29.80
2017-10-16T11:11:36.914Z,29.93
2017-10-16T11:14:04.362Z,31.60
2017-10-16T11:16:31.212Z,29.97
2017-10-16T11:18:58.055Z,29.10
2017-10-16T11:21:24.888Z,30.13
2017-10-16T11:23:51.722Z,31.70
2017-10-16T11:26:18.520Z,28.70
2017-10-16T11:28:45.324Z,28.70
2017-10-16T11:31:12.738Z,28.53
2017-10-16T11:33:39.545Z,27.10
2017-10-16T11:36:06.392Z,27.70
2017-10-16T11:38:33.265Z,26.67
2017-10-16T11:41:00.128Z,28.97
2017-10-16T11:43:26.925Z,27.40
2017-10-16T11:45:53.759Z,23.70
2017-10-16T11:48:20.594Z,25.70
2017-10-16T11:50:47.543Z,25.50
2017-10-16T11:53:14.433Z,24.83
2017-10-16T11:55:41.607Z,26.83
2017-10-16T11:58:08.699Z,27.60
2017-10-16T12:00:35.559Z,25.97
2017-10-16T12:03:02.358Z,27.20
2017-10-16T12:05:29.149Z,23.83
2017-10-16T12:07:56.103Z,26.17
2017-10-16T12:10:23.872Z,25.87
2017-10-16T12:12:50.696Z,26.20
2017-10-16T12:15:17.526Z,25.53
2017-10-16T12:17:44.495Z,28.30
2017-10-16T12:20:11.279Z,27.00
2017-10-16T12:22:38.142Z,25.77
2017-10-16T12:25:04.987Z,24.43
2017-10-16T12:27:32.302Z,26.10
2017-10-16T12:29:59.187Z,24.50
2017-10-16T12:32:26.011Z,23.87
2017-10-16T12:34:53.319Z,23.33
2017-10-16T12:37:20.158Z,24.00
2017-10-16T12:39:46.948Z,25.20
2017-10-16T12:42:13.798Z,26.87
2017-10-16T12:44:40.635Z,29.73
2017-10-16T12:47:07.424Z,27.67
2017-10-16T12:49:34.244Z,27.43
2017-10-16T12:52:01.071Z,29.00
2017-10-16T12:54:27.864Z,27.33
2017-10-16T12:56:54.694Z,28.07
2017-10-16T12:59:21.521Z,27.97
2017-10-16T13:01:48.587Z,29.40
2017-10-16T13:04:15.449Z,29.00
2017-10-16T13:06:42.322Z,25.00
2017-10-16T13:09:09.718Z,28.00
2017-10-16T13:11:37.115Z,27.20
2017-10-16T13:14:03.975Z,27.67
2017-10-16T13:16:30.794Z,28.73
2017-10-16T13:18:58.343Z,27.73
2017-10-16T13:21:25.231Z,29.80
2017-10-16T13:23:52.093Z,29.27
2017-10-16T13:26:18.908Z,28.60
2017-10-16T13:28:45.837Z,29.83
2017-10-16T13:31:12.719Z,30.57
2017-10-16T13:33:39.534Z,33.60
2017-10-16T13:36:06.479Z,31.50
2017-10-16T13:38:33.998Z,27.80
2017-10-16T13:41:00.854Z,31.50
2017-10-16T13:43:28.092Z,31.00
2017-10-16T13:45:55.052Z,30.77
2017-10-16T13:48:22.015Z,31.53
2017-10-16T13:50:48.895Z,32.00
2017-10-16T13:53:15.863Z,30.20
2017-10-16T13:55:42.917Z,32.60
2017-10-16T13:58:09.996Z,30.80
2017-10-16T14:00:36.822Z,31.73
2017-10-16T14:03:03.662Z,32.07
2017-10-16T14:05:30.723Z,30.47
2017-10-16T14:07:57.571Z,30.10
2017-10-16T14:10:24.461Z,32.63
2017-10-16T14:12:51.340Z,30.53
2017-10-16T14:15:18.155Z,30.53
2017-10-16T14:17:44.948Z,29.60
2017-10-16T14:20:11.787Z,29.80
2017-10-16T14:22:38.636Z,30.60
2017-10-16T14:25:05.443Z,29.93
2017-10-16T14:27:32.282Z,30.57
2017-10-16T14:29:59.180Z,28.40
2017-10-16T14:32:25.975Z,29.17
2017-10-16T14:34:53.785Z,29.27
2017-10-16T14:37:20.879Z,31.10
2017-10-16T14:39:47.723Z,30.00
2017-10-16T14:42:14.577Z,31.33
2017-10-16T14:44:41.380Z,32.80
2017-10-16T14:47:08.951Z,28.40
2017-10-16T14:49:35.804Z,31.63
2017-10-16T14:52:03.556Z,31.63
2017-10-16T14:54:31.396Z,30.07
2017-10-16T14:56:58.638Z,29.33
2017-10-16T14:59:25.451Z,29.97
2017-10-16T15:01:52.269Z,29.67
2017-10-16T15:04:19.724Z,28.60
2017-10-16T15:06:46.876Z,31.60
2017-10-16T15:11:45.283Z,30.80
2017-10-16T15:14:12.783Z,31.37
2017-10-16T15:16:39.593Z,29.70
2017-10-16T15:19:06.430Z,29.47
2017-10-16T15:21:33.250Z,29.80
2017-10-16T15:24:00.725Z,28.20
2017-10-16T15:26:27.585Z,30.87
2017-10-16T15:28:54.371Z,30.13
2017-10-16T15:31:22.132Z,31.77
2017-10-16T15:33:49.046Z,30.37
2017-10-16T15:36:15.849Z,33.70
2017-10-16T15:38:43.444Z,33.80
2017-10-16T15:41:10.288Z,37.27
2017-10-16T15:43:37.102Z,36.13
2017-10-16T15:46:03.907Z,37.30
2017-10-16T15:48:30.785Z,37.60
2017-10-16T15:50:57.908Z,34.77
2017-10-16T15:53:24.699Z,37.57
2017-10-16T15:55:51.891Z,40.03
2017-10-16T15:58:19.308Z,38.90
2017-10-16T16:00:46.121Z,37.87
2017-10-16T16:03:12.955Z,37.63
2017-10-16T16:05:39.786Z,38.13
2017-10-16T16:10:39.867Z,38.47
2017-10-16T16:13:06.678Z,40.20
2017-10-16T16:15:33.491Z,40.87
2017-10-16T16:18:00.625Z,40.20
2017-10-16T16:20:27.448Z,39.30
2017-10-16T16:22:54.963Z,40.33
2017-10-16T16:25:22.522Z,41.50
2017-10-16T16:27:49.361Z,41.60
2017-10-16T16:30:16.193Z,39.97
2017-10-16T16:32:43.058Z,40.70
2017-10-16T16:35:09.874Z,42.97
2017-10-16T16:37:36.663Z,44.00
2017-10-16T16:40:03.530Z,44.70
2017-10-16T16:42:30.418Z,41.80
2017-10-16T16:44:57.252Z,43.73
2017-10-16T16:47:24.097Z,44.00
2017-10-16T16:52:24.167Z,43.30
2017-10-16T16:54:50.950Z,45.10
2017-10-16T16:57:17.850Z,46.20
2017-10-16T16:59:44.696Z,45.07
2017-10-16T17:02:11.567Z,43.13
2017-10-16T17:04:38.360Z,43.60
2017-10-16T17:07:05.314Z,45.10
2017-10-16T17:09:32.171Z,44.07
2017-10-16T17:11:58.992Z,42.20
2017-10-16T17:14:25.879Z,44.93
2017-10-16T17:16:52.693Z,44.47
2017-10-16T17:19:19.503Z,43.13
2017-10-16T17:21:46.342Z,42.83
2017-10-16T17:24:13.190Z,41.83
2017-10-16T17:26:40.002Z,42.53
2017-10-16T17:29:06.854Z,39.47
2017-10-16T17:31:33.659Z,41.87
2017-10-16T17:34:00.444Z,42.60
2017-10-16T17:36:27.270Z,44.20
2017-10-16T17:38:54.071Z,43.23
2017-10-16T17:41:20.889Z,42.30
2017-10-16T17:43:47.738Z,42.20
2017-10-16T17:46:14.602Z,41.20
2017-10-16T17:48:41.400Z,42.20
2017-10-16T17:51:08.241Z,41.73
2017-10-16T17:53:35.003Z,42.10
2017-10-16T17:56:01.824Z,42.90
2017-10-16T17:58:28.694Z,42.67
2017-10-16T18:00:55.502Z,41.10
2017-10-16T18:03:22.291Z,40.27
2017-10-16T18:05:49.180Z,42.80
2017-10-16T18:08:15.980Z,41.40
2017-10-16T18:10:42.797Z,38.77
2017-10-16T18:13:09.620Z,42.07
2017-10-16T18:15:36.442Z,42.83
2017-10-16T18:18:03.261Z,41.60
2017-10-16T18:20:30.103Z,35.90
2017-10-16T18:22:56.901Z,38.87
2017-10-16T18:25:23.735Z,39.13
2017-10-16T18:27:50.615Z,38.43
2017-10-16T18:30:17.827Z,40.47
2017-10-16T18:32:44.655Z,37.93
2017-10-16T18:35:12.620Z,37.47
2017-10-16T18:37:39.462Z,38.27
2017-10-16T18:40:06.264Z,40.00
2017-10-16T18:42:33.146Z,37.10
2017-10-16T18:45:00.012Z,37.27
2017-10-16T18:47:26.803Z,38.10
2017-10-16T18:49:53.800Z,35.47
2017-10-16T18:52:21.467Z,36.80
2017-10-16T18:54:48.633Z,39.07
2017-10-16T18:57:15.486Z,38.80
2017-10-16T18:59:42.285Z,36.53
2017-10-16T19:02:09.941Z,35.60
2017-10-16T19:04:36.779Z,35.07
2017-10-16T19:07:03.620Z,38.80
2017-10-16T19:09:30.678Z,35.57
2017-10-16T19:11:57.562Z,35.33
2017-10-16T19:14:24.370Z,36.57
2017-10-16T19:16:51.684Z,34.63
2017-10-16T19:19:18.918Z,34.27
2017-10-16T19:21:46.709Z,37.03
2017-10-16T19:24:13.869Z,36.00
2017-10-16T19:26:40.723Z,33.70
2017-10-16T19:29:07.530Z,35.13
2017-10-16T19:31:34.908Z,32.10
2017-10-16T19:34:02.285Z,34.60
2017-10-16T19:36:29.652Z,34.70
2017-10-16T19:38:57.320Z,34.17
2017-10-16T19:41:24.372Z,35.67
2017-10-16T19:43:51.521Z,32.17
2017-10-16T19:46:18.883Z,33.37
2017-10-16T19:48:46.247Z,32.80
2017-10-16T19:51:13.702Z,31.53
2017-10-16T19:53:40.658Z,32.93
2017-10-16T19:56:08.222Z,33.97
2017-10-16T19:58:35.382Z,36.60
2017-10-16T20:01:02.606Z,33.47
2017-10-16T20:03:29.515Z,34.13
2017-10-16T20:05:56.326Z,32.80
2017-10-16T20:08:23.449Z,35.17
2017-10-16T20:10:50.637Z,33.77
2017-10-16T20:13:17.849Z,31.30
2017-10-16T20:16:12.830Z,31.93
2017-10-16T20:18:39.674Z,34.60
2017-10-16T20:21:06.551Z,33.97
2017-10-16T20:23:50.933Z,35.83
2017-10-16T20:26:17.743Z,32.73
2017-10-16T20:28:44.544Z,34.60
2017-10-16T20:31:11.448Z,33.00
2017-10-16T20:33:38.282Z,33.07
2017-10-16T20:36:05.137Z,32.80
2017-10-16T20:38:31.977Z,31.20
2017-10-16T20:40:58.796Z,33.47
2017-10-16T20:43:25.619Z,30.97
2017-10-16T20:45:52.455Z,31.33
2017-10-16T20:48:19.253Z,30.13
2017-10-16T20:50:46.062Z,29.73
2017-10-16T20:53:12.914Z,31.30
2017-10-16T20:55:39.713Z,27.93
2017-10-16T20:58:06.481Z,28.77
2017-10-16T21:00:33.399Z,28.67
2017-10-16T21:03:00.203Z,29.83
2017-10-16T21:05:27.004Z,29.10
2017-10-16T21:07:53.855Z,30.20
2017-10-16T21:10:20.630Z,27.50
2017-10-16T21:12:47.467Z,26.10
2017-10-16T21:15:14.341Z,27.60
2017-10-16T21:17:41.153Z,27.33
2017-10-16T21:20:07.987Z,29.70
2017-10-16T21:22:34.843Z,26.90
2017-10-16T21:25:01.676Z,27.83
2017-10-16T21:27:28.544Z,27.27
2017-10-16T21:29:55.382Z,26.83
2017-10-16T21:32:22.196Z,25.70
2017-10-16T21:34:49.015Z,26.40
2017-10-16T21:37:15.863Z,28.07
2017-10-16T21:39:42.640Z,26.27
2017-10-16T21:42:09.486Z,26.40
2017-10-16T21:44:36.308Z,26.40
2017-10-16T21:47:03.156Z,24.30
2017-10-16T21:49:29.992Z,25.40
2017-10-16T21:51:56.962Z,25.87
2017-10-16T21:54:23.786Z,24.73
2017-10-16T21:56:50.636Z,24.27
2017-10-16T21:59:17.493Z,23.63
2017-10-16T22:01:44.531Z,23.83
2017-10-16T22:04:11.374Z,23.30
2017-10-16T22:06:38.281Z,25.43
2017-10-16T22:09:05.135Z,22.03
2017-10-16T22:11:31.917Z,24.10
